Terminal Aerodrome Forecast
Issued by NWS Flagstaff, AZ

Home | Current Version | Previous Version | Text Only | Print | Product List | Glossary On
Versions: 1 2 3 4 5 6 7 8 9 10 11 12 13 14 15 16 17 18 19 20
754
FTUS45 KFGZ 292358 AAB
TAFINW
TAF AMD
KINW 292358Z 3000/3024 26017G27KT P6SM SCT080
     FM300230 24008KT P6SM FEW070 SCT080
     FM301500 17009KT P6SM BKN050 PROB30 3018/3024 VRB15G25KT -SHRA=

USA.gov is the U.S. government's official web portal to all federal, state and local government web resources and services.